Time;durP1;ratioP1;P1;durP2;ratioP2;P2;SDS_P1;SDS_P2;PMS_P1;PMS_P2;Temp;Humidity;BMP_temperature;BMP_pressure;BME280_temperature;BME280_humidity;BME280_pressure;Samples;Min_cycle;Max_cycle;Signal;HPM_P1;HPM_P2
2022/10/28 00:01:15;;;;;;;8.13;5.17;;;17.60;84.00;;;20.20;59.77;101870.56;4916404;29;20732;-60
2022/10/28 00:03:46;;;;;;;7.93;4.80;;;17.60;84.20;;;20.16;59.59;101862.13;4916776;29;20233;-59
2022/10/28 00:06:18;;;;;;;9.13;5.00;;;17.60;84.20;;;20.18;60.03;101861.91;4915803;29;20203;-61
2022/10/28 00:08:46;;;;;;;7.90;4.90;;;17.60;84.20;;;20.18;60.33;101865.41;4917348;29;20199;-60
2022/10/28 00:11:18;;;;;;;6.90;5.30;;;17.60;84.20;;;20.18;59.83;101857.38;4916770;29;20226;-60
2022/10/28 00:13:46;;;;;;;11.43;5.00;;;17.60;84.20;;;20.17;59.96;101863.78;4916899;29;20218;-61
2022/10/28 00:16:16;;;;;;;6.60;4.30;;;17.60;84.90;;;20.18;59.90;101870.75;4916874;29;20545;-60
2022/10/28 00:18:44;;;;;;;8.07;4.53;;;17.60;84.20;;;20.21;59.71;101870.34;4917515;29;20666;-59
2022/10/28 00:21:14;;;;;;;5.60;4.73;;;17.60;84.10;;;20.23;59.91;101870.97;4916534;29;20663;-62
2022/10/28 00:23:42;;;;;;;5.97;4.53;;;17.70;84.10;;;20.24;60.09;101864.59;4921278;29;20201;-61
2022/10/28 00:26:12;;;;;;;6.13;4.90;;;17.70;84.10;;;20.25;59.83;101862.75;4920095;29;20563;-59
2022/10/28 00:28:42;;;;;;;7.37;4.70;;;17.70;83.90;;;20.28;59.44;101864.97;4920740;29;20187;-61
2022/10/28 00:31:11;;;;;;;9.13;5.70;;;17.70;83.90;;;20.30;59.82;101856.78;4920170;29;20214;-60
2022/10/28 00:33:39;;;;;;;8.90;5.10;;;17.70;83.80;;;20.30;59.72;101852.22;4920401;29;20206;-61
2022/10/28 00:36:13;;;;;;;7.73;4.30;;;17.70;83.70;;;20.28;59.62;101854.28;4920308;29;20242;-61
2022/10/28 00:38:42;;;;;;;7.20;4.57;;;17.70;83.80;;;20.32;59.21;101854.72;4920746;29;20186;-61
2022/10/28 00:41:11;;;;;;;7.53;5.13;;;17.70;83.80;;;20.29;59.29;101855.94;4919643;29;20263;-61
2022/10/28 00:43:43;;;;;;;6.13;4.87;;;17.70;83.90;;;20.29;59.61;101845.25;4921013;29;20191;-61
2022/10/28 00:46:19;;;;;;;5.60;4.00;;;17.60;83.70;;;20.25;59.17;101834.13;4920337;29;20198;-61
2022/10/28 00:48:53;;;;;;;9.57;5.17;;;17.60;83.70;;;20.25;59.39;101852.84;4920103;29;20186;-61
2022/10/28 00:51:24;;;;;;;10.87;4.50;;;17.60;83.80;;;20.26;59.47;101856.34;4919444;29;20214;-60
2022/10/28 00:53:54;;;;;;;7.20;5.20;;;17.60;83.80;;;20.25;59.24;101855.53;4920048;29;20202;-59
2022/10/28 00:56:24;;;;;;;9.70;4.80;;;17.60;83.90;;;20.27;59.16;101846.50;4920316;29;20218;-60
2022/10/28 00:59:03;;;;;;;8.47;4.70;;;17.60;83.90;;;20.25;59.12;101844.84;4920138;29;20206;-61
2022/10/28 01:01:30;;;;;;;6.40;4.67;;;17.60;83.90;;;20.26;59.66;101843.00;4918423;29;20598;-61
2022/10/28 01:03:59;;;;;;;8.90;4.70;;;17.60;83.80;;;20.26;59.73;101840.31;4918519;29;20226;-60
2022/10/28 01:06:28;;;;;;;6.23;3.97;;;17.60;83.80;;;20.27;59.43;101825.09;4920010;29;20190;-60
2022/10/28 01:08:55;;;;;;;8.07;4.50;;;17.60;83.90;;;20.27;59.26;101825.94;4919957;29;20187;-61
2022/10/28 01:11:51;;;;;;;6.63;5.23;;;17.60;83.90;;;20.22;59.39;101823.88;4915037;29;20259;-61
2022/10/28 01:14:40;;;;;;;6.70;4.30;;;17.60;84.00;;;20.20;59.44;101820.56;4909485;29;20202;-61
2022/10/28 01:17:43;;;;;;;6.40;4.43;;;17.60;84.00;;;20.17;59.88;101826.34;4919440;29;20261;-60
2022/10/28 01:21:09;;;;;;;9.30;4.53;;;17.60;84.00;;;20.16;59.39;101830.03;4918705;29;20214;-59
2022/10/28 01:23:56;;;;;;;8.77;3.90;;;17.60;84.00;;;20.20;59.66;101825.91;4903524;29;20306;-62
2022/10/28 01:26:55;;;;;;;6.27;4.50;;;17.60;83.90;;;20.17;59.55;101821.00;4904639;29;20190;-62
2022/10/28 01:29:57;;;;;;;7.23;4.37;;;17.60;83.90;;;20.16;59.32;101802.47;4918567;29;20209;-58
2022/10/28 01:32:38;;;;;;;7.70;4.20;;;17.60;83.90;;;20.20;59.57;101803.69;4919517;29;20225;-58
2022/10/28 01:35:19;;;;;;;8.37;4.80;;;17.60;83.90;;;20.17;59.30;101799.59;4914888;29;20196;-60
2022/10/28 01:38:02;;;;;;;16.43;5.53;;;17.60;83.90;;;20.12;59.54;101791.38;4915107;29;20214;-60
2022/10/28 01:40:34;;;;;;;6.07;4.70;;;17.60;83.90;;;20.09;59.62;101790.97;4900233;29;20179;-61
2022/10/28 01:43:12;;;;;;;7.27;4.33;;;17.50;83.90;;;20.06;59.72;101789.53;4919213;29;20218;-60
2022/10/28 01:45:50;;;;;;;6.20;4.57;;;17.50;84.90;;;20.07;59.97;101782.34;4918156;29;20202;-60
2022/10/28 01:48:24;;;;;;;12.07;5.00;;;17.50;84.30;;;20.07;60.21;101772.47;4919008;29;20187;-58
2022/10/28 01:50:59;;;;;;;7.60;4.97;;;17.50;84.30;;;20.07;59.69;101777.81;4918637;29;20317;-60
2022/10/28 01:53:33;;;;;;;6.53;4.30;;;17.50;84.40;;;20.11;59.61;101788.94;4919178;29;20202;-61
2022/10/28 01:56:08;;;;;;;12.43;5.20;;;17.50;84.40;;;20.11;59.65;101795.06;4919254;29;20199;-61
2022/10/28 01:58:38;;;;;;;8.50;4.67;;;17.50;84.60;;;20.13;59.71;101795.69;4919229;29;20209;-61
2022/10/28 02:01:09;;;;;;;6.17;4.70;;;17.50;84.60;;;20.11;59.95;101794.28;4918278;29;20687;-61
2022/10/28 02:03:38;;;;;;;8.57;4.83;;;17.50;84.60;;;20.11;60.30;101803.09;4918918;29;20360;-59
2022/10/28 02:06:14;;;;;;;9.70;4.80;;;17.50;84.60;;;20.08;60.21;101803.53;4919300;29;20194;-61
2022/10/28 02:09:13;;;;;;;7.43;4.27;;;17.50;84.50;;;20.05;59.90;101795.09;4919452;29;20190;-61
2022/10/28 02:12:02;;;;;;;6.63;4.33;;;17.60;84.60;;;20.08;59.87;101790.16;4915788;29;20301;-61
2022/10/28 02:14:52;;;;;;;6.97;4.67;;;17.50;84.30;;;20.09;59.81;101790.97;4908759;29;20543;-61
2022/10/28 02:17:37;;;;;;;7.97;4.53;;;17.50;84.30;;;20.11;60.20;101797.75;4917616;29;20195;-60
2022/10/28 02:20:17;;;;;;;9.10;5.20;;;17.60;84.40;;;20.11;59.42;101791.59;4918570;29;20217;-61
2022/10/28 02:22:50;;;;;;;5.17;3.90;;;17.50;84.20;;;20.13;59.76;101781.53;4918397;29;20218;-60
2022/10/28 02:25:25;;;;;;;9.87;5.03;;;17.60;84.30;;;20.11;59.56;101784.38;4918169;29;20202;-59
2022/10/28 02:28:01;;;;;;;8.47;4.53;;;17.60;84.20;;;20.10;60.19;101784.59;4918527;29;20205;-63
2022/10/28 02:30:36;;;;;;;7.80;4.77;;;17.50;84.20;;;20.08;60.19;101774.13;4918558;29;20179;-62
2022/10/28 02:33:10;;;;;;;8.17;4.60;;;17.50;84.30;;;20.09;59.76;101757.03;4918358;29;20281;-61
2022/10/28 02:35:45;;;;;;;9.80;4.80;;;17.50;84.30;;;20.08;59.96;101752.75;4918602;29;20191;-61
2022/10/28 02:38:17;;;;;;;6.90;5.00;;;17.50;84.40;;;20.08;60.10;101752.75;4918331;29;20186;-58
2022/10/28 02:40:53;;;;;;;5.90;4.07;;;17.50;84.40;;;20.09;59.60;101748.19;4918799;29;20225;-61
2022/10/28 02:43:24;;;;;;;10.63;5.20;;;17.50;84.50;;;20.09;60.18;101743.69;4920044;29;20202;-61
2022/10/28 02:45:59;;;;;;;8.60;4.70;;;17.50;84.50;;;20.09;60.25;101746.34;4918460;29;20521;-61
2022/10/28 02:48:33;;;;;;;7.70;5.00;;;17.50;84.50;;;20.08;60.10;101747.41;4916999;29;20179;-61
2022/10/28 02:51:10;;;;;;;11.20;4.90;;;17.50;84.60;;;20.03;59.87;101733.84;4908580;29;20218;-60
2022/10/28 02:53:49;;;;;;;7.87;4.77;;;17.50;84.60;;;20.01;59.85;101735.91;4918247;29;20632;-62
2022/10/28 02:56:20;;;;;;;9.07;4.77;;;17.50;84.60;;;20.01;60.05;101735.91;4918080;29;20198;-61
2022/10/28 02:58:47;;;;;;;7.67;4.43;;;17.50;84.60;;;20.03;59.99;101738.38;4917959;29;20190;-61
2022/10/28 03:01:15;;;;;;;6.27;4.70;;;17.40;84.50;;;20.04;59.95;101735.47;4917706;29;20215;-62
2022/10/28 03:03:42;;;;;;;9.87;5.00;;;17.40;84.50;;;20.05;60.23;101731.78;4917417;29;20214;-61
2022/10/28 03:06:11;;;;;;;10.90;4.33;;;17.40;84.50;;;20.08;59.79;101735.88;4916460;29;20199;-59
2022/10/28 03:08:38;;;;;;;8.77;4.63;;;17.40;84.50;;;20.10;60.10;101718.59;4917557;29;20253;-62
2022/10/28 03:11:05;;;;;;;7.23;4.37;;;17.50;84.60;;;20.12;60.11;101719.19;4917621;29;20225;-60
2022/10/28 03:13:32;;;;;;;7.10;4.60;;;17.40;84.50;;;20.11;60.15;101719.44;4917650;29;20766;-61
2022/10/28 03:15:59;;;;;;;8.03;4.57;;;17.50;84.60;;;20.09;59.76;101722.28;4907039;29;20214;-61
2022/10/28 03:18:26;;;;;;;9.93;5.33;;;17.50;84.60;;;20.08;59.73;101723.34;4916357;29;20294;-61
2022/10/28 03:20:53;;;;;;;6.87;4.40;;;17.50;84.60;;;20.07;59.77;101724.34;4917029;29;20270;-60
2022/10/28 03:23:26;;;;;;;5.97;4.33;;;17.40;84.50;;;20.06;59.87;101722.72;4917424;29;20211;-59
2022/10/28 03:25:53;;;;;;;7.97;4.57;;;17.50;84.60;;;20.07;59.78;101724.34;4916623;29;20198;-59
2022/10/28 03:28:20;;;;;;;11.43;5.27;;;17.50;84.60;;;20.06;60.30;101716.56;4917339;29;20309;-61
2022/10/28 03:30:47;;;;;;;8.23;5.20;;;17.40;84.50;;;20.04;60.16;101714.09;4916976;29;20214;-62
2022/10/28 03:33:14;;;;;;;10.80;4.40;;;17.40;85.30;;;20.04;60.26;101708.75;4916884;29;20191;-62
2022/10/28 03:35:41;;;;;;;9.97;5.17;;;17.40;84.50;;;20.05;60.37;101710.38;4917504;29;20250;-60
2022/10/28 03:38:08;;;;;;;6.90;5.33;;;17.50;84.70;;;20.05;59.85;101720.25;4917398;29;20262;-60
2022/10/28 03:40:36;;;;;;;8.70;5.10;;;17.40;84.70;;;20.03;60.00;101723.16;4917207;29;20198;-61
2022/10/28 03:43:03;;;;;;;9.97;5.17;;;17.40;84.70;;;20.04;59.86;101718.63;4917792;29;20583;-58
2022/10/28 03:45:30;;;;;;;6.50;5.43;;;17.40;84.70;;;20.03;59.81;101715.13;4917420;29;20532;-61
2022/10/28 03:47:57;;;;;;;6.33;4.30;;;17.40;84.70;;;20.04;59.83;101713.28;4916690;29;20210;-62
2022/10/28 03:50:24;;;;;;;7.07;5.50;;;17.40;84.70;;;20.06;59.82;101712.00;4915462;29;20217;-62
2022/10/28 03:52:51;;;;;;;10.43;5.27;;;17.40;84.70;;;20.07;60.02;101713.66;4917294;29;20195;-62
2022/10/28 03:55:18;;;;;;;6.77;4.47;;;17.40;84.70;;;20.08;60.14;101711.81;4917115;29;20194;-60
2022/10/28 03:57:46;;;;;;;7.37;5.33;;;17.40;84.70;;;20.08;59.85;101709.97;4917144;29;20202;-62
2022/10/28 04:00:15;;;;;;;8.53;5.77;;;17.40;84.70;;;20.09;60.28;101698.22;4916593;29;20206;-58
2022/10/28 04:02:42;;;;;;;8.40;5.77;;;17.40;84.70;;;20.09;60.21;101695.56;4916757;29;20282;-62
2022/10/28 04:05:09;;;;;;;9.03;5.93;;;17.40;84.80;;;20.07;59.88;101702.97;4916940;29;20200;-62
2022/10/28 04:07:36;;;;;;;8.70;5.60;;;17.40;84.70;;;20.06;59.77;101711.22;4917226;29;20194;-62
2022/10/28 04:10:03;;;;;;;10.00;6.13;;;17.50;84.80;;;20.06;59.96;101706.66;4916741;29;20273;-59
2022/10/28 04:12:30;;;;;;;8.53;5.83;;;17.40;84.70;;;20.06;60.12;101700.53;4900613;29;20223;-62
2022/10/28 04:14:59;;;;;;;6.97;6.20;;;17.40;84.70;;;20.06;60.01;101695.97;4911972;29;20265;-62
2022/10/28 04:17:26;;;;;;;8.43;5.90;;;17.40;84.70;;;20.06;60.00;101695.97;4916820;29;20199;-60
2022/10/28 04:19:53;;;;;;;9.23;6.33;;;17.40;84.70;;;20.06;59.70;101695.19;4916429;29;20202;-61
2022/10/28 04:22:20;;;;;;;9.53;6.23;;;17.40;84.70;;;20.03;60.41;101701.78;4916528;29;20243;-60
2022/10/28 04:24:47;;;;;;;10.73;6.10;;;17.40;84.80;;;20.02;60.00;101701.97;4917054;29;20209;-62
2022/10/28 04:27:14;;;;;;;9.70;5.77;;;17.40;84.80;;;20.01;59.97;101705.69;4916618;29;20201;-61
2022/10/28 04:29:41;;;;;;;12.30;6.03;;;17.40;84.80;;;20.02;60.00;101699.28;4917649;29;20203;-58
2022/10/28 04:32:10;;;;;;;14.20;6.07;;;17.40;84.90;;;20.01;60.11;101695.81;4921011;29;20229;-61
2022/10/28 04:34:37;;;;;;;7.83;5.97;;;17.40;84.90;;;20.02;60.46;101700.13;4914496;29;20199;-61
2022/10/28 04:37:04;;;;;;;6.27;5.60;;;17.40;84.90;;;20.00;60.17;101696.84;4899562;29;20218;-59
2022/10/28 04:39:31;;;;;;;8.20;5.20;;;17.40;84.90;;;19.98;60.32;101693.56;4916672;29;20194;-62
2022/10/28 04:41:58;;;;;;;7.40;5.90;;;17.40;84.90;;;19.97;60.18;101691.91;4916091;29;20259;-64
2022/10/28 04:44:25;;;;;;;6.63;5.20;;;17.30;84.80;;;19.96;60.52;101689.47;4916902;29;20224;-61
2022/10/28 04:46:54;;;;;;;9.13;4.57;;;17.30;84.80;;;19.95;59.94;101693.16;4916449;29;20262;-61
2022/10/28 04:49:22;;;;;;;7.37;5.60;;;17.30;84.80;;;19.93;60.49;101689.88;4916494;29;20203;-59
2022/10/28 04:51:50;;;;;;;5.80;4.93;;;17.30;84.90;;;19.90;60.66;101688.44;4915871;29;20258;-60
2022/10/28 04:54:17;;;;;;;8.07;5.80;;;17.30;84.90;;;19.90;60.52;101691.13;4916015;29;20191;-62
2022/10/28 04:56:44;;;;;;;7.33;5.63;;;17.30;85.00;;;19.89;59.99;101686.81;4916346;29;20241;-62
2022/10/28 04:59:11;;;;;;;10.50;5.60;;;17.30;85.00;;;19.87;60.15;101680.06;4916221;29;20195;-60
2022/10/28 05:01:38;;;;;;;8.67;5.97;;;17.20;85.00;;;19.86;60.21;101687.25;4916112;29;20249;-61
2022/10/28 05:04:05;;;;;;;9.30;5.50;;;17.20;85.00;;;19.84;60.24;101681.28;4916139;29;20274;-61
2022/10/28 05:06:34;;;;;;;9.97;5.90;;;17.20;85.10;;;19.83;60.53;101679.63;4914902;29;20190;-62
2022/10/28 05:09:01;;;;;;;7.90;5.10;;;17.20;85.20;;;19.81;60.36;101676.38;4917876;29;20206;-61
2022/10/28 05:11:28;;;;;;;10.13;5.40;;;17.20;85.30;;;19.81;60.73;101676.38;4918810;29;20262;-62
2022/10/28 05:13:55;;;;;;;8.87;5.67;;;17.20;85.40;;;19.78;60.46;101671.44;4919482;29;20678;-62
2022/10/28 05:16:22;;;;;;;8.43;5.37;;;17.20;85.40;;;19.77;60.90;101675.16;4919540;29;20636;-63
2022/10/28 05:18:49;;;;;;;7.37;5.47;;;17.10;85.50;;;19.74;60.93;101674.75;4919757;29;20206;-61
2022/10/28 05:21:16;;;;;;;6.70;4.87;;;17.10;85.50;;;19.69;60.94;101678.06;4919177;29;20214;-59
2022/10/28 05:23:46;;;;;;;7.87;5.23;;;17.10;85.50;;;19.68;60.64;101671.09;4918125;29;20226;-62
2022/10/28 05:26:13;;;;;;;7.83;5.60;;;17.10;85.50;;;19.65;61.35;101670.66;4918278;29;20660;-61
2022/10/28 05:28:40;;;;;;;10.93;5.97;;;17.10;85.70;;;19.60;61.12;101668.63;4919406;29;20199;-62
2022/10/28 05:31:07;;;;;;;9.90;5.33;;;17.10;85.70;;;19.58;61.49;101662.69;4919562;29;20222;-60
2022/10/28 05:33:34;;;;;;;8.33;6.10;;;17.00;85.60;;;19.58;60.93;101657.34;4919282;29;20508;-59
2022/10/28 05:36:01;;;;;;;7.07;5.03;;;17.00;85.70;;;19.58;60.96;101652.00;4919257;29;20273;-61
2022/10/28 05:38:28;;;;;;;6.13;4.83;;;17.00;85.80;;;19.55;61.08;101645.22;4921884;29;20194;-62
2022/10/28 05:40:57;;;;;;;7.87;5.70;;;17.00;85.80;;;19.53;61.60;101643.81;4918386;29;20229;-60
2022/10/28 05:43:24;;;;;;;8.50;5.43;;;17.00;85.90;;;19.48;61.65;101659.63;4919407;29;20222;-60
2022/10/28 05:45:51;;;;;;;9.17;5.77;;;17.00;86.00;;;19.41;61.36;101662.34;4919792;29;20195;-60
2022/10/28 05:48:18;;;;;;;8.60;5.03;;;16.90;86.00;;;19.35;61.71;101667.66;4918823;29;20210;-60
2022/10/28 05:50:46;;;;;;;8.27;5.27;;;16.90;86.10;;;19.35;61.99;101656.97;4918515;29;20274;-59
2022/10/28 05:53:13;;;;;;;8.23;5.27;;;16.90;86.20;;;19.36;62.04;101656.78;4918912;29;20631;-60
2022/10/28 05:55:40;;;;;;;9.43;5.73;;;16.80;87.00;;;19.40;61.45;101649.16;4918686;29;20241;-62
2022/10/28 05:58:15;;;;;;;9.37;5.33;;;16.80;86.30;;;19.40;61.83;101655.34;4919343;29;20198;-62
2022/10/28 06:00:42;;;;;;;10.43;5.77;;;16.80;86.40;;;19.43;61.41;101651.44;4918585;29;20186;-62
2022/10/28 06:03:11;;;;;;;7.97;5.73;;;16.80;86.40;;;19.43;61.39;101640.75;4918773;29;20301;-60
2022/10/28 06:05:42;;;;;;;8.23;5.00;;;16.80;86.40;;;19.46;61.55;101645.69;4918949;29;20198;-60
2022/10/28 06:08:11;;;;;;;7.13;4.80;;;16.80;86.40;;;19.47;61.74;101647.28;4919010;29;20198;-62
2022/10/28 06:10:39;;;;;;;7.57;4.97;;;16.80;86.40;;;19.49;61.54;101645.25;4918788;29;20209;-60
2022/10/28 06:13:07;;;;;;;10.23;5.57;;;16.90;86.40;;;19.47;61.19;101652.63;4919664;29;20262;-61
2022/10/28 06:15:36;;;;;;;8.60;5.77;;;16.90;86.20;;;19.45;61.38;101660.03;4919477;29;20232;-61
2022/10/28 06:18:03;;;;;;;8.23;5.70;;;16.80;86.00;;;19.43;61.52;101659.44;4919993;29;20205;-62
2022/10/28 06:20:30;;;;;;;12.10;5.60;;;16.80;86.10;;;19.41;61.37;101658.84;4918328;29;20206;-62
2022/10/28 06:22:57;;;;;;;7.77;5.50;;;16.80;86.30;;;19.42;61.26;101666.63;4919565;29;20205;-61
2022/10/28 06:25:26;;;;;;;10.10;5.20;;;16.80;86.30;;;19.45;61.26;101671.56;4920357;29;20663;-62
2022/10/28 06:27:54;;;;;;;8.53;5.57;;;16.80;86.40;;;19.47;61.32;101671.34;4919945;29;20261;-63
2022/10/28 06:30:23;;;;;;;11.43;5.23;;;16.80;86.30;;;19.48;61.31;101659.63;4918124;29;20199;-60
2022/10/28 06:32:52;;;;;;;11.20;4.97;;;16.80;86.30;;;19.49;61.04;101661.28;4919372;29;20199;-61
2022/10/28 06:35:19;;;;;;;7.20;5.30;;;16.80;86.30;;;19.51;61.02;101659.22;4918948;29;20727;-61
2022/10/28 06:37:46;;;;;;;13.10;5.87;;;16.80;86.30;;;19.53;61.43;101666.00;4918789;29;20198;-61
2022/10/28 06:40:13;;;;;;;10.40;5.37;;;16.80;86.20;;;19.54;61.29;101674.81;4919036;29;20242;-60
2022/10/28 06:42:40;;;;;;;8.40;5.30;;;16.80;86.20;;;19.54;60.93;101664.94;4916745;29;20273;-61
2022/10/28 06:45:08;;;;;;;6.43;4.77;;;16.80;86.10;;;19.54;61.17;101669.47;4918414;29;20222;-61
2022/10/28 06:47:35;;;;;;;14.67;10.57;;;16.80;86.10;;;19.55;61.21;101669.28;4918417;29;20206;-60
2022/10/28 06:50:09;;;;;;;8.27;5.83;;;16.80;86.20;;;19.57;60.84;101669.06;4918037;29;20660;-61
2022/10/28 06:52:36;;;;;;;9.70;5.20;;;16.80;86.20;;;19.57;61.03;101675.22;4911119;29;20218;-62
2022/10/28 06:55:04;;;;;;;7.10;5.70;;;16.90;86.40;;;19.61;61.29;101664.94;4900495;29;20255;-61
2022/10/28 06:57:31;;;;;;;7.50;5.33;;;16.90;86.30;;;19.63;60.71;101678.91;4899855;29;20294;-61
2022/10/28 06:59:58;;;;;;;10.63;5.50;;;16.90;86.20;;;19.62;60.71;101693.28;4899743;29;20599;-60
2022/10/28 07:02:25;;;;;;;7.17;5.30;;;16.90;86.00;;;19.58;60.77;101689.41;4900310;29;20227;-60
2022/10/28 07:04:52;;;;;;;8.17;5.13;;;16.90;85.90;;;19.58;61.05;101678.72;4901934;29;20207;-60
2022/10/28 07:07:21;;;;;;;7.67;5.77;;;16.90;85.90;;;19.58;60.80;101676.88;4913212;29;20198;-59
2022/10/28 07:09:48;;;;;;;7.97;5.70;;;16.90;85.90;;;19.59;61.05;101678.50;4922318;29;20202;-61
2022/10/28 07:12:15;;;;;;;10.83;5.67;;;16.90;85.90;;;19.64;60.90;101685.88;4914550;29;20234;-60
2022/10/28 07:14:47;;;;;;;11.53;5.50;;;16.90;86.20;;;19.65;60.66;101686.69;4912971;29;20290;-60
2022/10/28 07:17:14;;;;;;;9.13;6.10;;;16.90;85.90;;;19.66;60.92;101696.38;4920048;29;20202;-62
2022/10/28 07:19:41;;;;;;;9.43;5.90;;;17.00;85.90;;;19.67;60.74;101688.13;4919797;29;20194;-62
2022/10/28 07:22:08;;;;;;;14.03;6.30;;;17.00;85.90;;;19.71;60.69;101686.66;4919539;29;20222;-61
2022/10/28 07:24:36;;;;;;;9.57;5.47;;;17.00;85.80;;;19.76;60.39;101686.03;4918771;29;20286;-60
2022/10/28 07:27:04;;;;;;;10.67;6.27;;;17.00;86.00;;;19.82;60.29;101688.69;4916818;29;20229;-60
2022/10/28 07:29:31;;;;;;;13.50;6.37;;;17.10;86.00;;;19.88;60.67;101684.34;4919702;29;20205;-62
2022/10/28 07:31:58;;;;;;;8.70;4.90;;;17.10;86.00;;;19.96;60.68;101678.78;4917359;29;20222;-61
2022/10/28 07:34:25;;;;;;;13.60;5.10;;;17.10;86.00;;;20.01;60.10;101685.13;4918846;29;20203;-61
2022/10/28 07:36:55;;;;;;;10.20;5.60;;;17.20;85.70;;;20.06;59.73;101685.28;4919355;29;20269;-61
2022/10/28 07:39:22;;;;;;;8.97;5.73;;;17.30;85.70;;;20.08;59.97;101693.94;4920472;29;20195;-61
2022/10/28 07:41:50;;;;;;;9.27;6.23;;;17.30;85.30;;;20.11;59.88;101682.78;4918990;29;20222;-59
2022/10/28 07:44:17;;;;;;;9.37;5.90;;;17.30;85.20;;;20.18;59.51;101699.63;4918741;29;20281;-61
2022/10/28 07:46:44;;;;;;;10.37;5.60;;;17.40;85.30;;;20.23;59.56;101701.69;4918936;29;20623;-61
2022/10/28 07:49:11;;;;;;;8.40;4.97;;;17.40;85.20;;;20.32;59.56;101695.06;4913357;29;20209;-61
2022/10/28 07:51:38;;;;;;;11.00;5.80;;;17.50;85.40;;;20.42;59.33;101700.75;4917168;29;20684;-61
2022/10/28 07:54:05;;;;;;;7.20;4.80;;;17.50;85.30;;;20.54;59.62;101698.22;4917537;29;20218;-62
2022/10/28 07:56:32;;;;;;;6.73;5.00;;;17.60;85.30;;;20.65;59.15;101697.53;4920329;29;20551;-61
2022/10/28 07:59:01;;;;;;;10.83;5.57;;;17.70;85.30;;;20.76;59.09;101702.16;4917617;29;20536;-61
2022/10/28 08:01:28;;;;;;;12.90;6.30;;;17.80;84.90;;;20.84;59.00;101700.06;4917310;29;20219;-59
2022/10/28 08:03:55;;;;;;;7.47;5.57;;;17.80;84.60;;;20.89;58.27;101696.72;4913798;29;20265;-61
2022/10/28 08:06:23;;;;;;;7.40;5.13;;;18.00;83.90;;;20.89;58.02;101689.47;4915770;29;20206;-61
2022/10/28 08:08:55;;;;;;;9.93;5.03;;;18.00;83.30;;;20.97;57.83;101692.94;4914794;29;20265;-60
2022/10/28 08:11:23;;;;;;;7.93;5.57;;;18.10;83.40;;;21.03;58.26;101690.22;4916103;29;20574;-60
2022/10/28 08:13:55;;;;;;;8.83;4.90;;;18.20;83.20;;;21.11;57.45;101684.59;4916821;29;20713;-61
2022/10/28 08:16:23;;;;;;;12.07;5.50;;;18.20;82.90;;;21.17;57.37;101694.44;4917183;29;20659;-61
2022/10/28 08:18:52;;;;;;;9.27;4.93;;;18.30;82.90;;;21.25;56.83;101685.31;4916295;29;20198;-61
2022/10/28 08:21:19;;;;;;;7.37;4.90;;;18.40;82.30;;;21.30;56.92;101686.25;4916855;29;20210;-61
2022/10/28 08:23:46;;;;;;;9.43;5.27;;;18.40;81.80;;;21.35;56.87;101686.41;4915183;29;20199;-60
2022/10/28 08:26:15;;;;;;;6.63;4.73;;;18.50;81.70;;;21.42;56.69;101684.47;4933590;29;20243;-58
2022/10/28 08:28:42;;;;;;;8.17;4.90;;;18.60;81.40;;;21.51;56.30;101682.34;4920437;29;20202;-61
2022/10/28 08:31:11;;;;;;;11.10;5.33;;;18.70;81.30;;;21.61;56.26;101676.47;4916851;29;20295;-62
2022/10/28 08:33:43;;;;;;;11.20;4.93;;;18.80;80.90;;;21.71;55.82;101674.88;4916261;29;20668;-61
2022/10/28 08:36:12;;;;;;;6.53;4.50;;;18.90;80.50;;;21.82;55.32;101670.63;4917865;29;20528;-59
2022/10/28 08:38:42;;;;;;;10.93;4.43;;;19.00;80.00;;;21.93;55.17;101672.56;4935427;29;20527;-58
2022/10/28 08:41:37;;;;;;;8.83;5.00;;;19.10;79.50;;;22.03;54.86;101678.22;4922360;29;20394;-60
2022/10/28 08:44:59;;;;;;;5.70;4.40;;;19.20;79.50;;;22.14;53.96;101680.13;4918666;29;20714;-60
2022/10/28 08:47:40;;;;;;;7.60;4.43;;;19.30;78.30;;;22.31;53.89;101678.44;4917486;29;20201;-62
2022/10/28 08:50:15;;;;;;;7.43;5.13;;;19.50;78.20;;;22.54;53.71;101681.19;4919736;29;20226;-61
2022/10/28 08:52:50;;;;;;;8.20;4.20;;;19.60;78.00;;;22.71;53.07;101682.19;4919345;29;20241;-59
2022/10/28 08:55:24;;;;;;;10.33;4.97;;;19.80;77.40;;;22.86;52.88;101673.69;4918881;29;20185;-61
2022/10/28 08:57:56;;;;;;;4.23;3.77;;;19.90;76.90;;;23.02;52.53;101674.84;4918833;29;20203;-61
2022/10/28 09:00:27;;;;;;;4.93;3.60;;;20.10;77.10;;;23.29;52.26;101673.34;4919234;29;20195;-59
2022/10/28 09:03:15;;;;;;;7.97;4.20;;;20.20;77.00;;;23.75;52.18;101667.88;4919214;29;20206;-61
2022/10/28 09:05:51;;;;;;;9.07;3.93;;;20.40;76.60;;;24.22;50.37;101672.06;4919574;29;20311;-61
2022/10/28 09:08:22;;;;;;;5.60;3.80;;;20.80;75.60;;;24.46;50.08;101674.63;4918084;29;20179;-61
2022/10/28 09:11:05;;;;;;;5.70;4.03;;;21.20;74.70;;;24.62;49.28;101679.22;4918668;29;20270;-62
2022/10/28 09:13:56;;;;;;;10.40;4.63;;;21.50;73.40;;;24.87;48.75;101669.69;4915015;29;20512;-62
2022/10/28 09:16:39;;;;;;;5.37;3.97;;;21.80;73.10;;;25.41;48.40;101667.25;4919773;29;20187;-62
2022/10/28 09:19:38;;;;;;;9.03;4.40;;;22.00;72.80;;;26.11;47.20;101667.28;4915861;29;20198;-60
2022/10/28 09:22:23;;;;;;;8.53;3.73;;;22.30;72.10;;;26.88;44.75;101672.31;4915841;29;20345;-61
2022/10/28 09:24:54;;;;;;;8.17;4.30;;;22.60;70.90;;;27.37;43.42;101676.41;4901605;29;20325;-60
2022/10/28 09:27:42;;;;;;;10.33;4.43;;;22.90;69.20;;;27.67;42.43;101671.16;4933269;29;20199;-60
2022/10/28 09:30:39;;;;;;;5.70;3.50;;;23.20;67.70;;;27.85;42.28;101675.28;4922553;29;20576;-62
2022/10/28 09:33:27;;;;;;;8.30;4.00;;;23.50;67.10;;;27.96;41.86;101669.63;4914182;29;20202;-61
2022/10/28 09:35:56;;;;;;;8.70;3.57;;;23.70;65.80;;;28.01;41.81;101658.84;4917618;29;20183;-61
2022/10/28 09:38:30;;;;;;;13.03;4.33;;;23.90;65.80;;;27.98;41.32;101659.34;4918231;29;20643;-60
2022/10/28 09:41:03;;;;;;;4.93;3.03;;;24.00;64.50;;;27.82;41.61;101668.50;4917477;29;20636;-62
2022/10/28 09:43:34;;;;;;;5.70;3.80;;;24.10;64.30;;;27.70;41.77;101676.03;4915736;29;20261;-61
2022/10/28 09:46:09;;;;;;;8.73;4.50;;;24.10;63.60;;;27.62;42.02;101676.56;4916543;29;20254;-61
2022/10/28 09:48:42;;;;;;;9.57;3.40;;;24.20;63.90;;;27.58;42.14;101680.88;4917537;29;20202;-61
2022/10/28 09:51:27;;;;;;;12.27;4.50;;;24.20;63.70;;;27.50;41.94;101675.97;4918372;29;20215;-62
2022/10/28 09:53:58;;;;;;;9.63;3.30;;;24.20;63.00;;;27.53;42.01;101676.25;4925045;29;20274;-61
2022/10/28 09:56:28;;;;;;;10.97;3.43;;;24.30;63.20;;;27.56;42.41;101671.38;4912824;29;20274;-61
2022/10/28 09:59:00;;;;;;;9.13;3.60;;;24.30;63.40;;;27.60;42.14;101665.16;4918008;29;20258;-61
2022/10/28 10:01:32;;;;;;;10.93;4.40;;;24.40;63.10;;;27.58;41.61;101663.81;4916204;29;20215;-62
2022/10/28 10:04:00;;;;;;;6.73;3.13;;;24.50;61.70;;;27.60;41.72;101664.38;4924621;29;20202;-62
2022/10/28 10:06:34;;;;;;;6.40;3.60;;;24.60;61.30;;;27.53;41.66;101653.78;4936308;29;20257;-60
2022/10/28 10:09:03;;;;;;;6.60;3.07;;;24.70;60.70;;;27.56;41.59;101658.66;4936435;29;20213;-61
2022/10/28 10:11:39;;;;;;;8.80;3.37;;;24.80;60.40;;;27.49;41.75;101658.09;4925613;29;20218;-61
2022/10/28 10:14:11;;;;;;;10.37;3.93;;;24.90;60.10;;;27.51;41.24;101662.16;4902054;29;20639;-62
2022/10/28 10:16:45;;;;;;;9.87;3.80;;;24.90;59.70;;;27.50;41.61;101659.75;4916919;29;20213;-61
2022/10/28 10:19:13;;;;;;;10.13;3.60;;;24.90;59.70;;;27.51;41.62;101654.06;4916597;29;20190;-61
2022/10/28 10:21:44;;;;;;;9.77;4.27;;;25.00;59.40;;;27.49;41.35;101648.09;4915723;29;20214;-62
2022/10/28 10:24:30;;;;;;;8.03;3.87;;;25.00;59.50;;;27.34;41.73;101655.28;4900442;29;20274;-60
2022/10/28 10:27:01;;;;;;;8.47;3.73;;;24.90;59.40;;;27.35;41.58;101662.34;4916452;29;20273;-60
2022/10/28 10:29:31;;;;;;;8.97;4.77;;;24.90;59.50;;;27.31;41.21;101659.34;4916034;29;20206;-60